sensor_id;sensor_type;location;lat;lon;timestamp;P1;durP1;ratioP1;P2;durP2;ratioP2
20348;SDS011;10332;50.208;18.988;2023-02-01T00:01:09;17.40;;;9.70;;
20348;SDS011;10332;50.208;18.988;2023-02-01T00:03:37;19.07;;;9.63;;
20348;SDS011;10332;50.208;18.988;2023-02-01T00:06:05;20.23;;;10.07;;
20348;SDS011;10332;50.208;18.988;2023-02-01T00:08:32;17.43;;;9.40;;
20348;SDS011;10332;50.208;18.988;2023-02-01T00:11:07;18.83;;;10.27;;
20348;SDS011;10332;50.208;18.988;2023-02-01T00:13:38;17.67;;;10.30;;
20348;SDS011;10332;50.208;18.988;2023-02-01T00:16:15;15.63;;;8.43;;
20348;SDS011;10332;50.208;18.988;2023-02-01T00:18:46;15.13;;;8.60;;
20348;SDS011;10332;50.208;18.988;2023-02-01T00:21:17;14.83;;;8.97;;
20348;SDS011;10332;50.208;18.988;2023-02-01T00:23:47;12.93;;;7.87;;
20348;SDS011;10332;50.208;18.988;2023-02-01T00:26:16;15.33;;;9.27;;
20348;SDS011;10332;50.208;18.988;2023-02-01T00:28:46;16.87;;;8.33;;
20348;SDS011;10332;50.208;18.988;2023-02-01T00:31:13;13.07;;;8.30;;
20348;SDS011;10332;50.208;18.988;2023-02-01T00:33:41;14.10;;;7.70;;
20348;SDS011;10332;50.208;18.988;2023-02-01T00:36:09;13.63;;;8.43;;
20348;SDS011;10332;50.208;18.988;2023-02-01T00:38:37;13.30;;;8.70;;
20348;SDS011;10332;50.208;18.988;2023-02-01T00:41:06;12.80;;;7.47;;
20348;SDS011;10332;50.208;18.988;2023-02-01T00:43:45;11.33;;;6.87;;
20348;SDS011;10332;50.208;18.988;2023-02-01T00:46:15;10.13;;;6.57;;
20348;SDS011;10332;50.208;18.988;2023-02-01T00:48:45;11.63;;;7.03;;
20348;SDS011;10332;50.208;18.988;2023-02-01T00:51:13;12.87;;;7.40;;
20348;SDS011;10332;50.208;18.988;2023-02-01T00:53:44;10.73;;;6.70;;
20348;SDS011;10332;50.208;18.988;2023-02-01T00:56:12;9.97;;;6.13;;
20348;SDS011;10332;50.208;18.988;2023-02-01T00:58:40;11.13;;;6.70;;
20348;SDS011;10332;50.208;18.988;2023-02-01T01:01:15;6.33;;;3.60;;
20348;SDS011;10332;50.208;18.988;2023-02-01T01:03:50;5.20;;;3.60;;
20348;SDS011;10332;50.208;18.988;2023-02-01T01:06:23;7.43;;;3.60;;
20348;SDS011;10332;50.208;18.988;2023-02-01T01:08:55;7.67;;;3.60;;
20348;SDS011;10332;50.208;18.988;2023-02-01T01:11:26;4.47;;;2.70;;
20348;SDS011;10332;50.208;18.988;2023-02-01T01:13:58;2.73;;;1.60;;
20348;SDS011;10332;50.208;18.988;2023-02-01T01:16:27;4.00;;;1.70;;
20348;SDS011;10332;50.208;18.988;2023-02-01T01:18:57;4.50;;;2.03;;
20348;SDS011;10332;50.208;18.988;2023-02-01T01:21:26;4.13;;;2.20;;
20348;SDS011;10332;50.208;18.988;2023-02-01T01:23:54;4.20;;;1.83;;
20348;SDS011;10332;50.208;18.988;2023-02-01T01:26:23;3.58;;;1.38;;
20348;SDS011;10332;50.208;18.988;2023-02-01T01:28:54;2.57;;;1.27;;
20348;SDS011;10332;50.208;18.988;2023-02-01T01:31:24;3.30;;;1.20;;
20348;SDS011;10332;50.208;18.988;2023-02-01T01:33:53;3.23;;;1.50;;
20348;SDS011;10332;50.208;18.988;2023-02-01T01:36:23;5.50;;;1.20;;
20348;SDS011;10332;50.208;18.988;2023-02-01T01:38:53;3.97;;;1.40;;
20348;SDS011;10332;50.208;18.988;2023-02-01T01:41:25;6.07;;;1.43;;
20348;SDS011;10332;50.208;18.988;2023-02-01T01:44:01;3.80;;;1.30;;
20348;SDS011;10332;50.208;18.988;2023-02-01T01:46:34;3.83;;;1.17;;
20348;SDS011;10332;50.208;18.988;2023-02-01T01:49:14;3.80;;;1.37;;
20348;SDS011;10332;50.208;18.988;2023-02-01T01:51:54;6.17;;;1.50;;
20348;SDS011;10332;50.208;18.988;2023-02-01T01:54:29;4.30;;;1.20;;
20348;SDS011;10332;50.208;18.988;2023-02-01T01:57:51;2.10;;;1.20;;
20348;SDS011;10332;50.208;18.988;2023-02-01T02:00:04;3.73;;;1.30;;
20348;SDS011;10332;50.208;18.988;2023-02-01T02:02:38;2.00;;;0.87;;
20348;SDS011;10332;50.208;18.988;2023-02-01T02:05:09;2.73;;;0.80;;
20348;SDS011;10332;50.208;18.988;2023-02-01T02:07:40;3.17;;;0.80;;
20348;SDS011;10332;50.208;18.988;2023-02-01T02:10:13;4.10;;;0.77;;
20348;SDS011;10332;50.208;18.988;2023-02-01T02:12:44;3.27;;;0.97;;
20348;SDS011;10332;50.208;18.988;2023-02-01T02:15:14;2.57;;;1.07;;
20348;SDS011;10332;50.208;18.988;2023-02-01T02:17:53;4.23;;;1.13;;
20348;SDS011;10332;50.208;18.988;2023-02-01T02:37:30;3.40;;;2.50;;
20348;SDS011;10332;50.208;18.988;2023-02-01T02:40:20;7.43;;;3.13;;
20348;SDS011;10332;50.208;18.988;2023-02-01T02:46:04;6.37;;;3.53;;
20348;SDS011;10332;50.208;18.988;2023-02-01T02:49:11;4.23;;;2.03;;
20348;SDS011;10332;50.208;18.988;2023-02-01T02:51:54;3.63;;;1.60;;
20348;SDS011;10332;50.208;18.988;2023-02-01T02:54:47;4.30;;;1.37;;
20348;SDS011;10332;50.208;18.988;2023-02-01T03:00:16;3.07;;;1.40;;
20348;SDS011;10332;50.208;18.988;2023-02-01T03:03:06;4.23;;;1.37;;
20348;SDS011;10332;50.208;18.988;2023-02-01T03:05:52;2.87;;;1.40;;
20348;SDS011;10332;50.208;18.988;2023-02-01T03:08:21;4.00;;;1.43;;
20348;SDS011;10332;50.208;18.988;2023-02-01T03:10:57;6.70;;;3.07;;
20348;SDS011;10332;50.208;18.988;2023-02-01T03:16:27;11.33;;;5.83;;
20348;SDS011;10332;50.208;18.988;2023-02-01T03:21:45;10.67;;;6.40;;
20348;SDS011;10332;50.208;18.988;2023-02-01T03:32:45;8.53;;;5.13;;
20348;SDS011;10332;50.208;18.988;2023-02-01T03:38:13;5.70;;;3.87;;
20348;SDS011;10332;50.208;18.988;2023-02-01T03:41:33;5.57;;;3.60;;
20348;SDS011;10332;50.208;18.988;2023-02-01T03:44:39;6.40;;;3.50;;
20348;SDS011;10332;50.208;18.988;2023-02-01T03:47:21;5.57;;;2.73;;
20348;SDS011;10332;50.208;18.988;2023-02-01T03:49:54;5.33;;;3.30;;
20348;SDS011;10332;50.208;18.988;2023-02-01T03:52:28;5.20;;;3.73;;
20348;SDS011;10332;50.208;18.988;2023-02-01T03:55:07;5.07;;;3.10;;
20348;SDS011;10332;50.208;18.988;2023-02-01T03:57:45;6.50;;;3.13;;
20348;SDS011;10332;50.208;18.988;2023-02-01T04:00:22;5.20;;;3.30;;
20348;SDS011;10332;50.208;18.988;2023-02-01T04:02:52;8.83;;;3.80;;
20348;SDS011;10332;50.208;18.988;2023-02-01T04:05:21;4.87;;;2.97;;
20348;SDS011;10332;50.208;18.988;2023-02-01T04:07:49;4.93;;;2.93;;
20348;SDS011;10332;50.208;18.988;2023-02-01T04:10:17;5.40;;;2.90;;
20348;SDS011;10332;50.208;18.988;2023-02-01T04:12:45;5.00;;;2.80;;
20348;SDS011;10332;50.208;18.988;2023-02-01T04:15:13;3.97;;;2.70;;
20348;SDS011;10332;50.208;18.988;2023-02-01T04:17:41;8.33;;;5.30;;
20348;SDS011;10332;50.208;18.988;2023-02-01T04:20:08;9.63;;;5.07;;
20348;SDS011;10332;50.208;18.988;2023-02-01T04:22:37;8.87;;;6.83;;
20348;SDS011;10332;50.208;18.988;2023-02-01T04:25:04;12.40;;;7.90;;
20348;SDS011;10332;50.208;18.988;2023-02-01T04:27:33;12.40;;;8.93;;
20348;SDS011;10332;50.208;18.988;2023-02-01T04:30:02;13.23;;;9.17;;
20348;SDS011;10332;50.208;18.988;2023-02-01T04:32:31;14.10;;;9.60;;
20348;SDS011;10332;50.208;18.988;2023-02-01T04:34:58;15.60;;;9.57;;
20348;SDS011;10332;50.208;18.988;2023-02-01T04:37:26;15.40;;;9.83;;
20348;SDS011;10332;50.208;18.988;2023-02-01T04:39:53;16.33;;;10.00;;
20348;SDS011;10332;50.208;18.988;2023-02-01T04:42:21;16.87;;;10.70;;
20348;SDS011;10332;50.208;18.988;2023-02-01T04:44:48;17.70;;;10.77;;
20348;SDS011;10332;50.208;18.988;2023-02-01T04:47:16;17.83;;;8.57;;
20348;SDS011;10332;50.208;18.988;2023-02-01T04:49:43;15.53;;;8.70;;
20348;SDS011;10332;50.208;18.988;2023-02-01T04:52:11;12.03;;;6.77;;
20348;SDS011;10332;50.208;18.988;2023-02-01T04:54:38;14.20;;;8.00;;
20348;SDS011;10332;50.208;18.988;2023-02-01T04:57:06;13.87;;;7.00;;
20348;SDS011;10332;50.208;18.988;2023-02-01T04:59:33;14.27;;;6.50;;
20348;SDS011;10332;50.208;18.988;2023-02-01T05:02:01;12.50;;;5.87;;
20348;SDS011;10332;50.208;18.988;2023-02-01T05:04:29;11.53;;;6.33;;
20348;SDS011;10332;50.208;18.988;2023-02-01T05:06:57;12.50;;;5.87;;
20348;SDS011;10332;50.208;18.988;2023-02-01T05:09:24;14.87;;;7.50;;
20348;SDS011;10332;50.208;18.988;2023-02-01T05:11:51;14.80;;;7.80;;
20348;SDS011;10332;50.208;18.988;2023-02-01T05:14:37;16.90;;;8.77;;
20348;SDS011;10332;50.208;18.988;2023-02-01T05:17:05;17.33;;;9.33;;
20348;SDS011;10332;50.208;18.988;2023-02-01T05:19:32;18.87;;;10.63;;
20348;SDS011;10332;50.208;18.988;2023-02-01T05:22:00;19.87;;;10.23;;
20348;SDS011;10332;50.208;18.988;2023-02-01T05:24:27;22.33;;;10.73;;
20348;SDS011;10332;50.208;18.988;2023-02-01T05:26:54;17.70;;;10.40;;
20348;SDS011;10332;50.208;18.988;2023-02-01T05:29:22;19.53;;;10.20;;
20348;SDS011;10332;50.208;18.988;2023-02-01T05:31:50;21.17;;;10.30;;
20348;SDS011;10332;50.208;18.988;2023-02-01T05:34:17;20.80;;;10.37;;
20348;SDS011;10332;50.208;18.988;2023-02-01T05:36:46;18.53;;;10.33;;
20348;SDS011;10332;50.208;18.988;2023-02-01T05:39:13;24.03;;;10.87;;
20348;SDS011;10332;50.208;18.988;2023-02-01T05:41:40;17.30;;;8.70;;
20348;SDS011;10332;50.208;18.988;2023-02-01T05:44:08;13.13;;;6.47;;
20348;SDS011;10332;50.208;18.988;2023-02-01T05:46:37;12.87;;;4.90;;
20348;SDS011;10332;50.208;18.988;2023-02-01T05:49:04;9.93;;;4.20;;
20348;SDS011;10332;50.208;18.988;2023-02-01T05:51:32;14.53;;;4.80;;
20348;SDS011;10332;50.208;18.988;2023-02-01T05:54:00;10.17;;;4.40;;
20348;SDS011;10332;50.208;18.988;2023-02-01T05:56:27;11.07;;;4.50;;
20348;SDS011;10332;50.208;18.988;2023-02-01T05:58:55;9.30;;;4.37;;
20348;SDS011;10332;50.208;18.988;2023-02-01T06:01:22;9.73;;;4.53;;
20348;SDS011;10332;50.208;18.988;2023-02-01T06:03:50;9.83;;;4.10;;
20348;SDS011;10332;50.208;18.988;2023-02-01T06:06:17;12.63;;;4.83;;
20348;SDS011;10332;50.208;18.988;2023-02-01T06:08:46;16.33;;;5.10;;
20348;SDS011;10332;50.208;18.988;2023-02-01T06:11:13;12.07;;;5.43;;
20348;SDS011;10332;50.208;18.988;2023-02-01T06:13:57;14.33;;;5.87;;
20348;SDS011;10332;50.208;18.988;2023-02-01T06:16:25;16.67;;;7.17;;
20348;SDS011;10332;50.208;18.988;2023-02-01T06:18:54;18.83;;;8.20;;
20348;SDS011;10332;50.208;18.988;2023-02-01T06:21:21;18.13;;;8.83;;
20348;SDS011;10332;50.208;18.988;2023-02-01T06:23:52;21.43;;;8.53;;
20348;SDS011;10332;50.208;18.988;2023-02-01T06:26:21;28.50;;;9.67;;
20348;SDS011;10332;50.208;18.988;2023-02-01T06:28:49;23.37;;;9.53;;
20348;SDS011;10332;50.208;18.988;2023-02-01T06:31:16;21.57;;;9.40;;
20348;SDS011;10332;50.208;18.988;2023-02-01T06:33:44;20.80;;;8.60;;
20348;SDS011;10332;50.208;18.988;2023-02-01T06:36:13;23.93;;;8.80;;
20348;SDS011;10332;50.208;18.988;2023-02-01T06:38:42;22.03;;;9.10;;
20348;SDS011;10332;50.208;18.988;2023-02-01T06:41:10;21.33;;;8.70;;
20348;SDS011;10332;50.208;18.988;2023-02-01T06:43:37;21.80;;;9.63;;
20348;SDS011;10332;50.208;18.988;2023-02-01T06:46:06;22.43;;;8.77;;
20348;SDS011;10332;50.208;18.988;2023-02-01T06:48:37;21.90;;;6.97;;
20348;SDS011;10332;50.208;18.988;2023-02-01T06:51:05;17.90;;;7.03;;
20348;SDS011;10332;50.208;18.988;2023-02-01T06:53:43;25.87;;;8.23;;
20348;SDS011;10332;50.208;18.988;2023-02-01T06:56:10;24.50;;;9.00;;
20348;SDS011;10332;50.208;18.988;2023-02-01T06:58:37;30.63;;;11.90;;
20348;SDS011;10332;50.208;18.988;2023-02-01T07:01:06;22.97;;;9.30;;
20348;SDS011;10332;50.208;18.988;2023-02-01T07:03:36;27.23;;;9.65;;
20348;SDS011;10332;50.208;18.988;2023-02-01T07:06:05;23.53;;;9.90;;
20348;SDS011;10332;50.208;18.988;2023-02-01T07:08:35;21.60;;;9.33;;
20348;SDS011;10332;50.208;18.988;2023-02-01T07:11:05;24.13;;;9.50;;
20348;SDS011;10332;50.208;18.988;2023-02-01T07:13:35;17.90;;;6.77;;
20348;SDS011;10332;50.208;18.988;2023-02-01T07:16:04;18.77;;;7.27;;
20348;SDS011;10332;50.208;18.988;2023-02-01T07:18:37;16.53;;;6.47;;
20348;SDS011;10332;50.208;18.988;2023-02-01T07:21:05;18.63;;;7.53;;
20348;SDS011;10332;50.208;18.988;2023-02-01T07:23:33;20.00;;;7.05;;
20348;SDS011;10332;50.208;18.988;2023-02-01T07:26:02;16.80;;;7.00;;
20348;SDS011;10332;50.208;18.988;2023-02-01T07:28:33;16.03;;;7.60;;
20348;SDS011;10332;50.208;18.988;2023-02-01T07:31:10;19.80;;;7.40;;
20348;SDS011;10332;50.208;18.988;2023-02-01T07:33:41;18.60;;;7.53;;
20348;SDS011;10332;50.208;18.988;2023-02-01T07:36:13;17.87;;;7.77;;
20348;SDS011;10332;50.208;18.988;2023-02-01T07:38:43;17.73;;;8.00;;
20348;SDS011;10332;50.208;18.988;2023-02-01T07:41:12;20.90;;;8.10;;
20348;SDS011;10332;50.208;18.988;2023-02-01T07:43:39;21.33;;;9.20;;
20348;SDS011;10332;50.208;18.988;2023-02-01T07:46:07;23.05;;;10.02;;
20348;SDS011;10332;50.208;18.988;2023-02-01T07:48:36;24.00;;;10.93;;
20348;SDS011;10332;50.208;18.988;2023-02-01T07:51:06;22.23;;;9.97;;
20348;SDS011;10332;50.208;18.988;2023-02-01T07:53:40;21.38;;;8.75;;
20348;SDS011;10332;50.208;18.988;2023-02-01T07:56:18;19.93;;;9.40;;
20348;SDS011;10332;50.208;18.988;2023-02-01T07:58:49;22.73;;;8.83;;
20348;SDS011;10332;50.208;18.988;2023-02-01T08:01:20;19.67;;;8.77;;
20348;SDS011;10332;50.208;18.988;2023-02-01T08:03:56;18.93;;;8.60;;
20348;SDS011;10332;50.208;18.988;2023-02-01T08:06:28;19.17;;;8.10;;
20348;SDS011;10332;50.208;18.988;2023-02-01T08:08:58;17.35;;;7.80;;
20348;SDS011;10332;50.208;18.988;2023-02-01T08:11:26;17.17;;;7.43;;
20348;SDS011;10332;50.208;18.988;2023-02-01T08:13:54;20.05;;;8.52;;
20348;SDS011;10332;50.208;18.988;2023-02-01T08:16:22;19.58;;;8.25;;
20348;SDS011;10332;50.208;18.988;2023-02-01T08:18:50;22.73;;;9.38;;
20348;SDS011;10332;50.208;18.988;2023-02-01T08:21:21;23.17;;;10.80;;
20348;SDS011;10332;50.208;18.988;2023-02-01T08:23:52;20.80;;;9.97;;
20348;SDS011;10332;50.208;18.988;2023-02-01T08:26:21;24.88;;;9.90;;
20348;SDS011;10332;50.208;18.988;2023-02-01T08:28:52;20.77;;;9.80;;
20348;SDS011;10332;50.208;18.988;2023-02-01T08:31:24;20.77;;;9.07;;
20348;SDS011;10332;50.208;18.988;2023-02-01T08:33:55;22.13;;;9.77;;
20348;SDS011;10332;50.208;18.988;2023-02-01T08:36:26;24.00;;;10.15;;
20348;SDS011;10332;50.208;18.988;2023-02-01T08:38:56;23.80;;;10.80;;
20348;SDS011;10332;50.208;18.988;2023-02-01T08:41:25;21.80;;;10.80;;
20348;SDS011;10332;50.208;18.988;2023-02-01T08:43:56;21.30;;;10.17;;
20348;SDS011;10332;50.208;18.988;2023-02-01T08:46:25;20.23;;;10.15;;
20348;SDS011;10332;50.208;18.988;2023-02-01T08:48:52;21.33;;;10.88;;
20348;SDS011;10332;50.208;18.988;2023-02-01T08:51:21;19.42;;;10.20;;
20348;SDS011;10332;50.208;18.988;2023-02-01T08:53:50;23.63;;;10.30;;
20348;SDS011;10332;50.208;18.988;2023-02-01T08:56:18;22.40;;;10.60;;
20348;SDS011;10332;50.208;18.988;2023-02-01T08:58:47;15.82;;;8.70;;
20348;SDS011;10332;50.208;18.988;2023-02-01T09:01:15;18.73;;;9.47;;
20348;SDS011;10332;50.208;18.988;2023-02-01T09:03:44;23.85;;;10.55;;
20348;SDS011;10332;50.208;18.988;2023-02-01T09:06:13;22.83;;;10.17;;
20348;SDS011;10332;50.208;18.988;2023-02-01T09:08:42;19.77;;;9.07;;
20348;SDS011;10332;50.208;18.988;2023-02-01T09:11:12;17.77;;;8.43;;
20348;SDS011;10332;50.208;18.988;2023-02-01T09:13:43;17.55;;;8.93;;
20348;SDS011;10332;50.208;18.988;2023-02-01T09:16:11;21.88;;;10.25;;
20348;SDS011;10332;50.208;18.988;2023-02-01T09:18:39;15.38;;;7.78;;
20348;SDS011;10332;50.208;18.988;2023-02-01T09:21:27;18.53;;;7.97;;
20348;SDS011;10332;50.208;18.988;2023-02-01T09:23:55;18.88;;;8.38;;
20348;SDS011;10332;50.208;18.988;2023-02-01T09:26:23;15.93;;;7.75;;
20348;SDS011;10332;50.208;18.988;2023-02-01T09:28:58;20.10;;;8.15;;
20348;SDS011;10332;50.208;18.988;2023-02-01T09:31:27;15.35;;;5.93;;
20348;SDS011;10332;50.208;18.988;2023-02-01T09:33:54;13.82;;;6.15;;
20348;SDS011;10332;50.208;18.988;2023-02-01T09:36:22;16.58;;;6.90;;
20348;SDS011;10332;50.208;18.988;2023-02-01T09:38:50;18.27;;;7.45;;
20348;SDS011;10332;50.208;18.988;2023-02-01T09:41:29;17.30;;;7.88;;
20348;SDS011;10332;50.208;18.988;2023-02-01T09:47:23;16.02;;;7.18;;
20348;SDS011;10332;50.208;18.988;2023-02-01T09:49:56;16.42;;;7.55;;
20348;SDS011;10332;50.208;18.988;2023-02-01T09:52:38;17.38;;;7.68;;
20348;SDS011;10332;50.208;18.988;2023-02-01T09:55:18;16.23;;;7.72;;
20348;SDS011;10332;50.208;18.988;2023-02-01T10:01:08;12.85;;;6.68;;
20348;SDS011;10332;50.208;18.988;2023-02-01T10:03:46;12.95;;;6.60;;
20348;SDS011;10332;50.208;18.988;2023-02-01T10:18:27;19.23;;;8.00;;
20348;SDS011;10332;50.208;18.988;2023-02-01T10:27:20;20.02;;;8.13;;
20348;SDS011;10332;50.208;18.988;2023-02-01T10:29:59;24.00;;;9.48;;
20348;SDS011;10332;50.208;18.988;2023-02-01T10:32:38;19.42;;;7.80;;
20348;SDS011;10332;50.208;18.988;2023-02-01T10:35:51;21.20;;;9.10;;
20348;SDS011;10332;50.208;18.988;2023-02-01T10:38:03;17.80;;;8.05;;
20348;SDS011;10332;50.208;18.988;2023-02-01T10:40:57;16.00;;;7.70;;
20348;SDS011;10332;50.208;18.988;2023-02-01T10:43:36;15.90;;;7.75;;
20348;SDS011;10332;50.208;18.988;2023-02-01T10:46:06;20.30;;;8.07;;
20348;SDS011;10332;50.208;18.988;2023-02-01T10:48:35;20.40;;;8.15;;
20348;SDS011;10332;50.208;18.988;2023-02-01T10:53:57;21.73;;;9.15;;
20348;SDS011;10332;50.208;18.988;2023-02-01T10:56:35;19.33;;;8.88;;
20348;SDS011;10332;50.208;18.988;2023-02-01T10:59:06;20.30;;;8.40;;
20348;SDS011;10332;50.208;18.988;2023-02-01T11:01:48;18.08;;;8.48;;
20348;SDS011;10332;50.208;18.988;2023-02-01T11:04:25;20.30;;;8.50;;
20348;SDS011;10332;50.208;18.988;2023-02-01T11:07:03;19.92;;;8.80;;
20348;SDS011;10332;50.208;18.988;2023-02-01T11:09:51;17.48;;;8.00;;
20348;SDS011;10332;50.208;18.988;2023-02-01T11:12:33;19.67;;;8.30;;
20348;SDS011;10332;50.208;18.988;2023-02-01T11:17:50;17.20;;;7.97;;
20348;SDS011;10332;50.208;18.988;2023-02-01T11:22:59;17.23;;;8.20;;
20348;SDS011;10332;50.208;18.988;2023-02-01T11:25:28;21.77;;;9.57;;
20348;SDS011;10332;50.208;18.988;2023-02-01T11:27:57;17.20;;;8.10;;
20348;SDS011;10332;50.208;18.988;2023-02-01T11:30:59;15.80;;;7.90;;
20348;SDS011;10332;50.208;18.988;2023-02-01T11:33:24;17.27;;;7.10;;
20348;SDS011;10332;50.208;18.988;2023-02-01T11:36:10;18.38;;;8.10;;
20348;SDS011;10332;50.208;18.988;2023-02-01T11:38:54;19.48;;;8.65;;
20348;SDS011;10332;50.208;18.988;2023-02-01T11:44:32;20.40;;;9.18;;
20348;SDS011;10332;50.208;18.988;2023-02-01T11:47:20;18.92;;;9.00;;
20348;SDS011;10332;50.208;18.988;2023-02-01T11:49:55;18.23;;;7.63;;
20348;SDS011;10332;50.208;18.988;2023-02-01T11:52:34;18.70;;;8.55;;
20348;SDS011;10332;50.208;18.988;2023-02-01T11:55:08;17.05;;;8.00;;
20348;SDS011;10332;50.208;18.988;2023-02-01T12:01:08;17.88;;;8.40;;
20348;SDS011;10332;50.208;18.988;2023-02-01T12:15:53;16.60;;;7.68;;
20348;SDS011;10332;50.208;18.988;2023-02-01T12:30:28;19.00;;;9.50;;
20348;SDS011;10332;50.208;18.988;2023-02-01T12:39:04;20.73;;;8.75;;
20348;SDS011;10332;50.208;18.988;2023-02-01T12:42:09;18.13;;;8.45;;
20348;SDS011;10332;50.208;18.988;2023-02-01T12:44:50;16.80;;;8.25;;
20348;SDS011;10332;50.208;18.988;2023-02-01T12:47:32;15.07;;;8.30;;
20348;SDS011;10332;50.208;18.988;2023-02-01T12:50:24;16.67;;;8.00;;
20348;SDS011;10332;50.208;18.988;2023-02-01T12:53:14;17.52;;;8.02;;
20348;SDS011;10332;50.208;18.988;2023-02-01T12:55:55;15.05;;;7.07;;
20348;SDS011;10332;50.208;18.988;2023-02-01T12:58:52;18.52;;;8.60;;
20348;SDS011;10332;50.208;18.988;2023-02-01T13:01:34;15.93;;;7.93;;
20348;SDS011;10332;50.208;18.988;2023-02-01T13:04:59;16.65;;;8.27;;
20348;SDS011;10332;50.208;18.988;2023-02-01T13:07:42;18.30;;;8.27;;
20348;SDS011;10332;50.208;18.988;2023-02-01T13:10:37;17.63;;;8.30;;
20348;SDS011;10332;50.208;18.988;2023-02-01T13:13:18;15.85;;;8.32;;
20348;SDS011;10332;50.208;18.988;2023-02-01T13:16:21;17.98;;;9.02;;
20348;SDS011;10332;50.208;18.988;2023-02-01T13:22:07;16.48;;;8.52;;
20348;SDS011;10332;50.208;18.988;2023-02-01T13:24:58;16.15;;;8.20;;
20348;SDS011;10332;50.208;18.988;2023-02-01T13:31:56;21.45;;;9.60;;
20348;SDS011;10332;50.208;18.988;2023-02-01T13:40:44;17.20;;;8.48;;
20348;SDS011;10332;50.208;18.988;2023-02-01T13:43:32;21.23;;;9.68;;
20348;SDS011;10332;50.208;18.988;2023-02-01T13:46:05;18.85;;;9.40;;
20348;SDS011;10332;50.208;18.988;2023-02-01T13:48:45;17.55;;;9.45;;
20348;SDS011;10332;50.208;18.988;2023-02-01T13:56:59;20.15;;;9.45;;
20348;SDS011;10332;50.208;18.988;2023-02-01T14:05:11;16.88;;;9.50;;
20348;SDS011;10332;50.208;18.988;2023-02-01T14:23:57;27.87;;;12.97;;
20348;SDS011;10332;50.208;18.988;2023-02-01T14:31:49;18.53;;;10.00;;
20348;SDS011;10332;50.208;18.988;2023-02-01T14:42:16;19.57;;;10.33;;
20348;SDS011;10332;50.208;18.988;2023-02-01T15:01:29;26.05;;;14.43;;
20348;SDS011;10332;50.208;18.988;2023-02-01T15:06:36;23.23;;;13.13;;
20348;SDS011;10332;50.208;18.988;2023-02-01T15:09:25;20.97;;;12.37;;
20348;SDS011;10332;50.208;18.988;2023-02-01T15:14:46;16.43;;;9.77;;
20348;SDS011;10332;50.208;18.988;2023-02-01T15:17:30;17.67;;;10.77;;
20348;SDS011;10332;50.208;18.988;2023-02-01T15:20:03;25.95;;;13.77;;
20348;SDS011;10332;50.208;18.988;2023-02-01T15:22:38;40.78;;;19.50;;
20348;SDS011;10332;50.208;18.988;2023-02-01T15:25:17;14.82;;;7.55;;
20348;SDS011;10332;50.208;18.988;2023-02-01T15:27:48;14.15;;;8.52;;
20348;SDS011;10332;50.208;18.988;2023-02-01T15:30:24;15.05;;;8.90;;
20348;SDS011;10332;50.208;18.988;2023-02-01T15:33:31;16.45;;;9.52;;
20348;SDS011;10332;50.208;18.988;2023-02-01T15:35:53;15.63;;;8.88;;
20348;SDS011;10332;50.208;18.988;2023-02-01T15:38:45;20.97;;;10.53;;
20348;SDS011;10332;50.208;18.988;2023-02-01T15:41:19;17.90;;;10.05;;
20348;SDS011;10332;50.208;18.988;2023-02-01T15:46:28;22.90;;;11.33;;
20348;SDS011;10332;50.208;18.988;2023-02-01T15:51:56;19.33;;;10.35;;
20348;SDS011;10332;50.208;18.988;2023-02-01T15:54:28;21.98;;;10.13;;
20348;SDS011;10332;50.208;18.988;2023-02-01T15:57:11;24.40;;;12.30;;
20348;SDS011;10332;50.208;18.988;2023-02-01T15:59:45;20.65;;;11.07;;
20348;SDS011;10332;50.208;18.988;2023-02-01T16:02:27;20.00;;;9.80;;
20348;SDS011;10332;50.208;18.988;2023-02-01T16:08:23;18.40;;;9.57;;
20348;SDS011;10332;50.208;18.988;2023-02-01T16:10:54;17.17;;;9.98;;
20348;SDS011;10332;50.208;18.988;2023-02-01T16:13:58;21.70;;;12.10;;
20348;SDS011;10332;50.208;18.988;2023-02-01T16:16:27;17.33;;;9.90;;
20348;SDS011;10332;50.208;18.988;2023-02-01T16:18:56;18.23;;;10.33;;
20348;SDS011;10332;50.208;18.988;2023-02-01T16:21:23;21.02;;;12.50;;
20348;SDS011;10332;50.208;18.988;2023-02-01T16:23:51;20.90;;;12.07;;
20348;SDS011;10332;50.208;18.988;2023-02-01T16:26:20;24.83;;;13.43;;
20348;SDS011;10332;50.208;18.988;2023-02-01T16:28:48;22.90;;;12.47;;
20348;SDS011;10332;50.208;18.988;2023-02-01T16:31:16;21.83;;;12.35;;
20348;SDS011;10332;50.208;18.988;2023-02-01T16:33:50;25.15;;;12.88;;
20348;SDS011;10332;50.208;18.988;2023-02-01T16:36:18;27.17;;;13.87;;
20348;SDS011;10332;50.208;18.988;2023-02-01T16:38:47;35.90;;;17.90;;
20348;SDS011;10332;50.208;18.988;2023-02-01T16:41:20;37.40;;;17.50;;
20348;SDS011;10332;50.208;18.988;2023-02-01T16:43:51;35.67;;;15.75;;
20348;SDS011;10332;50.208;18.988;2023-02-01T16:46:21;30.37;;;15.13;;
20348;SDS011;10332;50.208;18.988;2023-02-01T16:48:53;32.80;;;15.20;;
20348;SDS011;10332;50.208;18.988;2023-02-01T16:51:25;27.17;;;13.90;;
20348;SDS011;10332;50.208;18.988;2023-02-01T16:53:59;27.83;;;12.47;;
20348;SDS011;10332;50.208;18.988;2023-02-01T16:56:29;23.67;;;11.60;;
20348;SDS011;10332;50.208;18.988;2023-02-01T16:59:00;23.33;;;10.48;;
20348;SDS011;10332;50.208;18.988;2023-02-01T17:01:27;20.70;;;9.93;;
20348;SDS011;10332;50.208;18.988;2023-02-01T17:03:55;23.88;;;10.25;;
20348;SDS011;10332;50.208;18.988;2023-02-01T17:06:23;21.33;;;9.45;;
20348;SDS011;10332;50.208;18.988;2023-02-01T17:08:55;19.17;;;10.23;;
20348;SDS011;10332;50.208;18.988;2023-02-01T17:11:24;19.30;;;9.52;;
20348;SDS011;10332;50.208;18.988;2023-02-01T17:13:57;14.70;;;7.53;;
20348;SDS011;10332;50.208;18.988;2023-02-01T17:16:40;15.23;;;7.97;;
20348;SDS011;10332;50.208;18.988;2023-02-01T17:19:14;15.13;;;7.83;;
20348;SDS011;10332;50.208;18.988;2023-02-01T17:21:47;11.17;;;6.70;;
20348;SDS011;10332;50.208;18.988;2023-02-01T17:24:23;16.70;;;8.50;;
20348;SDS011;10332;50.208;18.988;2023-02-01T17:27:13;18.88;;;9.35;;
20348;SDS011;10332;50.208;18.988;2023-02-01T17:29:42;19.07;;;9.43;;
20348;SDS011;10332;50.208;18.988;2023-02-01T17:32:19;18.37;;;8.90;;
20348;SDS011;10332;50.208;18.988;2023-02-01T17:34:50;17.13;;;9.53;;
20348;SDS011;10332;50.208;18.988;2023-02-01T17:37:26;19.30;;;9.48;;
20348;SDS011;10332;50.208;18.988;2023-02-01T17:39:58;19.77;;;10.23;;
20348;SDS011;10332;50.208;18.988;2023-02-01T17:42:28;19.92;;;11.15;;
20348;SDS011;10332;50.208;18.988;2023-02-01T17:44:58;15.77;;;8.48;;
20348;SDS011;10332;50.208;18.988;2023-02-01T17:47:52;14.80;;;8.75;;
20348;SDS011;10332;50.208;18.988;2023-02-01T17:50:20;18.95;;;9.75;;
20348;SDS011;10332;50.208;18.988;2023-02-01T17:52:57;16.92;;;9.25;;
20348;SDS011;10332;50.208;18.988;2023-02-01T17:55:25;11.18;;;6.93;;
20348;SDS011;10332;50.208;18.988;2023-02-01T17:57:53;15.18;;;7.80;;
20348;SDS011;10332;50.208;18.988;2023-02-01T18:36:18;29.37;;;12.87;;
20348;SDS011;10332;50.208;18.988;2023-02-01T18:38:46;33.37;;;14.67;;
20348;SDS011;10332;50.208;18.988;2023-02-01T18:41:15;33.63;;;16.10;;
20348;SDS011;10332;50.208;18.988;2023-02-01T18:43:48;31.63;;;15.77;;
20348;SDS011;10332;50.208;18.988;2023-02-01T18:46:17;35.50;;;16.33;;
20348;SDS011;10332;50.208;18.988;2023-02-01T18:48:45;47.42;;;21.33;;